createdAt,value
2017-05-28T00:02:05.671Z,19.40
2017-05-28T00:04:33.154Z,19.40
2017-05-28T00:07:01.027Z,19.40
2017-05-28T00:09:28.937Z,19.40
2017-05-28T00:11:57.181Z,19.30
2017-05-28T00:14:25.071Z,19.30
2017-05-28T00:16:52.968Z,19.30
2017-05-28T00:19:20.841Z,19.30
2017-05-28T00:21:48.706Z,19.20
2017-05-28T00:24:16.600Z,19.20
2017-05-28T00:26:44.466Z,19.10
2017-05-28T00:29:12.333Z,19.20
2017-05-28T00:31:40.475Z,19.10
2017-05-28T00:34:08.344Z,19.20
2017-05-28T00:36:36.211Z,19.10
2017-05-28T00:39:04.189Z,19.00
2017-05-28T00:41:32.052Z,19.00
2017-05-28T00:43:59.934Z,18.90
2017-05-28T00:46:27.538Z,19.00
2017-05-28T00:48:55.406Z,19.00
2017-05-28T00:51:23.541Z,19.00
2017-05-28T00:53:51.654Z,18.90
2017-05-28T00:56:19.516Z,18.90
2017-05-28T00:58:47.383Z,18.90
2017-05-28T01:01:15.277Z,18.90
2017-05-28T01:03:43.166Z,18.90
2017-05-28T01:06:11.029Z,19.00
2017-05-28T01:08:38.943Z,18.90
2017-05-28T01:11:06.821Z,18.90
2017-05-28T01:13:34.694Z,18.80
2017-05-28T01:16:02.892Z,18.80
2017-05-28T01:18:30.761Z,18.80
2017-05-28T01:20:59.043Z,18.70
2017-05-28T01:23:26.902Z,18.80
2017-05-28T01:25:54.777Z,18.80
2017-05-28T01:28:22.657Z,18.80
2017-05-28T01:30:50.565Z,18.80
2017-05-28T01:33:18.442Z,18.80
2017-05-28T01:35:46.311Z,18.80
2017-05-28T01:38:14.592Z,18.80
2017-05-28T01:40:42.453Z,18.80
2017-05-28T01:43:10.334Z,18.80
2017-05-28T01:45:38.249Z,18.70
2017-05-28T01:48:05.718Z,18.70
2017-05-28T01:50:33.189Z,18.70
2017-05-28T01:53:01.018Z,18.70
2017-05-28T01:55:28.889Z,18.70
2017-05-28T01:57:56.761Z,18.70
2017-05-28T02:00:24.248Z,18.60
2017-05-28T02:02:52.113Z,18.60
2017-05-28T02:05:19.998Z,18.60
2017-05-28T02:07:47.918Z,18.60
2017-05-28T02:10:15.777Z,18.60
2017-05-28T02:12:43.671Z,18.60
2017-05-28T02:15:11.810Z,18.60
2017-05-28T02:17:39.695Z,18.60
2017-05-28T02:20:07.795Z,18.60
2017-05-28T02:22:35.292Z,18.60
2017-05-28T02:25:03.135Z,18.60
2017-05-28T02:27:30.975Z,18.50
2017-05-28T02:29:58.929Z,18.40
2017-05-28T02:32:26.773Z,18.50
2017-05-28T02:34:54.615Z,18.40
2017-05-28T02:37:22.555Z,18.40
2017-05-28T02:39:50.398Z,18.40
2017-05-28T02:42:18.237Z,18.40
2017-05-28T02:44:46.102Z,18.50
2017-05-28T02:47:13.548Z,18.50
2017-05-28T02:49:41.381Z,18.50
2017-05-28T02:52:09.125Z,18.50
2017-05-28T02:54:36.964Z,18.40
2017-05-28T02:57:04.804Z,18.50
2017-05-28T02:59:32.924Z,18.40
2017-05-28T03:02:00.776Z,18.40
2017-05-28T03:04:28.617Z,18.30
2017-05-28T03:06:56.728Z,18.30
2017-05-28T03:09:24.564Z,18.30
2017-05-28T03:11:52.401Z,18.30
2017-05-28T03:14:20.621Z,18.30
2017-05-28T03:16:48.471Z,18.40
2017-05-28T03:19:15.909Z,18.40
2017-05-28T03:21:43.974Z,18.30
2017-05-28T03:24:11.803Z,18.20
2017-05-28T03:26:39.640Z,18.30
2017-05-28T03:29:07.112Z,18.30
2017-05-28T03:31:34.572Z,18.30
2017-05-28T03:34:02.411Z,18.20
2017-05-28T03:36:30.287Z,18.20
2017-05-28T03:38:58.125Z,18.20
2017-05-28T03:41:25.968Z,18.20
2017-05-28T03:43:53.668Z,18.20
2017-05-28T03:46:21.507Z,18.10
2017-05-28T03:48:48.953Z,18.10
2017-05-28T03:51:16.824Z,18.20
2017-05-28T03:53:44.279Z,18.20
2017-05-28T03:56:12.120Z,18.30
2017-05-28T03:58:40.344Z,18.20
2017-05-28T04:01:08.183Z,18.30
2017-05-28T04:03:36.029Z,18.30
2017-05-28T04:06:04.145Z,18.30
2017-05-28T04:08:31.988Z,18.30
2017-05-28T04:10:59.820Z,18.40
2017-05-28T04:13:27.945Z,18.40
2017-05-28T04:15:55.781Z,18.40
2017-05-28T04:18:23.624Z,18.40
2017-05-28T04:20:51.653Z,18.50
2017-05-28T04:23:19.493Z,18.40
2017-05-28T04:25:47.337Z,18.50
2017-05-28T04:28:15.217Z,18.60
2017-05-28T04:30:43.051Z,18.60
2017-05-28T04:33:10.505Z,18.70
2017-05-28T04:35:38.628Z,18.70
2017-05-28T04:38:06.076Z,18.70
2017-05-28T04:40:33.915Z,18.70
2017-05-28T04:43:02.111Z,18.60
2017-05-28T04:45:29.552Z,18.60
2017-05-28T04:47:57.402Z,18.50
2017-05-28T04:50:25.500Z,18.60
2017-05-28T04:52:53.341Z,18.60
2017-05-28T04:55:21.181Z,18.60
2017-05-28T04:57:49.028Z,18.70
2017-05-28T05:00:16.879Z,18.70
2017-05-28T05:02:44.720Z,18.80
2017-05-28T05:05:12.993Z,18.80
2017-05-28T05:07:40.440Z,18.80
2017-05-28T05:10:08.286Z,18.90
2017-05-28T05:12:36.237Z,19.10
2017-05-28T05:15:04.072Z,19.10
2017-05-28T05:17:31.925Z,19.10
2017-05-28T05:19:59.800Z,19.10
2017-05-28T05:22:27.641Z,19.20
2017-05-28T05:24:55.485Z,19.30
2017-05-28T05:27:23.415Z,19.40
2017-05-28T05:29:51.198Z,19.40
2017-05-28T05:32:19.035Z,19.60
2017-05-28T05:34:46.908Z,19.60
2017-05-28T05:37:14.744Z,19.70
2017-05-28T05:39:42.193Z,19.70
2017-05-28T05:42:10.057Z,19.70
2017-05-28T05:44:37.639Z,19.70
2017-05-28T05:47:05.484Z,19.90
2017-05-28T05:49:33.357Z,19.90
2017-05-28T05:52:01.197Z,19.90
2017-05-28T05:54:29.037Z,20.00
2017-05-28T05:56:56.916Z,20.10
2017-05-28T05:59:24.369Z,20.10
2017-05-28T06:01:52.216Z,20.30
2017-05-28T06:04:20.007Z,20.30
2017-05-28T06:06:47.847Z,20.50
2017-05-28T06:09:15.693Z,20.50
2017-05-28T06:11:43.733Z,20.60
2017-05-28T06:14:11.580Z,20.70
2017-05-28T06:16:39.420Z,20.80
2017-05-28T06:19:06.904Z,20.80
2017-05-28T06:21:34.742Z,21.10
2017-05-28T06:24:02.600Z,21.10
2017-05-28T06:26:30.466Z,21.20
2017-05-28T06:28:58.309Z,21.40
2017-05-28T06:31:26.155Z,21.40
2017-05-28T06:33:54.111Z,21.50
2017-05-28T06:36:21.948Z,21.60
2017-05-28T06:38:49.793Z,21.60
2017-05-28T06:41:18.472Z,21.70
2017-05-28T06:43:46.332Z,21.90
2017-05-28T06:46:14.605Z,22.10
2017-05-28T06:48:42.699Z,22.10
2017-05-28T06:51:10.539Z,22.10
2017-05-28T06:53:38.584Z,22.10
2017-05-28T06:56:06.819Z,22.10
2017-05-28T06:58:34.681Z,22.00
2017-05-28T07:01:02.520Z,22.00
2017-05-28T07:03:30.392Z,22.00
2017-05-28T07:05:58.887Z,22.10
2017-05-28T07:08:26.341Z,22.10
2017-05-28T07:10:53.801Z,22.30
2017-05-28T07:13:21.639Z,21.80
2017-05-28T07:15:50.599Z,21.70
2017-05-28T07:18:19.072Z,21.60
2017-05-28T07:20:46.914Z,21.70
2017-05-28T07:23:14.766Z,21.90
2017-05-28T07:25:42.250Z,21.90
2017-05-28T07:28:09.704Z,22.10
2017-05-28T07:30:37.555Z,22.50
2017-05-28T07:33:05.771Z,22.70
2017-05-28T07:35:33.616Z,22.50
2017-05-28T07:38:01.526Z,22.50
2017-05-28T07:40:30.056Z,22.70
2017-05-28T07:42:58.003Z,22.90
2017-05-28T07:45:25.914Z,22.90
2017-05-28T07:47:53.793Z,23.00
2017-05-28T07:50:21.888Z,23.10
2017-05-28T07:52:53.046Z,22.80
2017-05-28T07:55:20.888Z,22.80
2017-05-28T07:57:48.588Z,22.80
2017-05-28T08:00:16.077Z,22.80
2017-05-28T08:02:43.957Z,22.80
2017-05-28T08:05:11.819Z,22.90
2017-05-28T08:07:39.658Z,22.90
2017-05-28T08:10:07.118Z,22.90
2017-05-28T08:12:35.296Z,22.70
2017-05-28T08:15:02.748Z,22.70
2017-05-28T08:17:30.819Z,22.40
2017-05-28T08:19:58.257Z,22.40
2017-05-28T08:22:26.103Z,22.60
2017-05-28T08:24:53.629Z,22.60
2017-05-28T08:27:21.441Z,22.50
2017-05-28T08:29:49.289Z,22.60
2017-05-28T08:32:17.526Z,22.50
2017-05-28T08:34:45.382Z,22.50
2017-05-28T08:37:13.230Z,22.50
2017-05-28T08:39:40.722Z,22.50
2017-05-28T08:42:08.572Z,22.40
2017-05-28T08:44:36.922Z,22.30
2017-05-28T08:47:04.892Z,22.40
2017-05-28T08:49:32.764Z,22.40
2017-05-28T08:52:00.614Z,22.50
2017-05-28T08:54:31.739Z,22.50
2017-05-28T08:57:00.278Z,22.50
2017-05-28T08:59:28.114Z,22.60
2017-05-28T09:01:56.002Z,22.90
2017-05-28T09:04:24.745Z,23.00
2017-05-28T09:06:52.595Z,22.90
2017-05-28T09:09:20.486Z,23.10
2017-05-28T09:11:47.939Z,23.10
2017-05-28T09:14:15.794Z,23.10
2017-05-28T09:16:43.700Z,23.00
2017-05-28T09:19:11.162Z,23.00
2017-05-28T09:21:39.016Z,23.00
2017-05-28T09:24:07.092Z,23.10
2017-05-28T09:26:34.550Z,23.10
2017-05-28T09:29:02.401Z,23.20
2017-05-28T09:31:31.280Z,23.30
2017-05-28T09:33:59.144Z,23.10
2017-05-28T09:36:27.014Z,23.20
2017-05-28T09:38:54.877Z,23.40
2017-05-28T09:41:22.729Z,23.50
2017-05-28T09:43:50.571Z,23.40
2017-05-28T09:46:18.630Z,23.40
2017-05-28T09:48:47.611Z,23.40
2017-05-28T09:51:15.461Z,23.80
2017-05-28T09:53:43.591Z,23.80
2017-05-28T09:56:11.457Z,24.20
2017-05-28T09:58:39.327Z,24.50
2017-05-28T10:01:07.529Z,24.70
2017-05-28T10:03:35.428Z,25.10
2017-05-28T10:06:03.273Z,25.30
2017-05-28T10:08:31.392Z,25.30
2017-05-28T10:10:59.592Z,24.90
2017-05-28T10:13:27.063Z,24.90
2017-05-28T10:15:54.910Z,24.70
2017-05-28T10:18:22.950Z,24.70
2017-05-28T10:20:51.070Z,24.40
2017-05-28T10:23:18.916Z,24.60
2017-05-28T10:25:46.777Z,24.70
2017-05-28T10:28:14.866Z,25.00
2017-05-28T10:30:42.731Z,25.40
2017-05-28T10:33:10.599Z,25.70
2017-05-28T10:35:38.656Z,25.70
2017-05-28T10:38:06.512Z,25.70
2017-05-28T10:40:34.366Z,25.50
2017-05-28T10:43:01.858Z,25.50
2017-05-28T10:45:29.711Z,25.80
2017-05-28T10:47:57.169Z,25.80
2017-05-28T10:50:25.861Z,26.00
2017-05-28T10:52:53.727Z,26.40
2017-05-28T10:55:21.631Z,26.50
2017-05-28T10:57:50.212Z,26.20
2017-05-28T11:00:18.076Z,26.30
2017-05-28T11:02:45.539Z,26.30
2017-05-28T11:05:13.999Z,26.60
2017-05-28T11:07:41.837Z,27.00
2017-05-28T11:10:09.690Z,26.70
2017-05-28T11:12:37.459Z,26.80
2017-05-28T11:15:05.308Z,27.00
2017-05-28T11:17:33.163Z,26.80
2017-05-28T11:22:41.101Z,27.20
2017-05-28T11:25:09.066Z,27.60
2017-05-28T11:27:36.929Z,27.80
2017-05-28T11:30:05.281Z,27.90
2017-05-28T11:32:33.154Z,28.00
2017-05-28T11:35:01.019Z,27.30
2017-05-28T11:37:28.916Z,27.30
2017-05-28T11:39:56.997Z,27.50
2017-05-28T11:42:24.801Z,27.50
2017-05-28T11:44:52.655Z,27.20
2017-05-28T11:47:20.540Z,27.40
2017-05-28T11:49:48.393Z,28.10
2017-05-28T11:52:15.844Z,28.10
2017-05-28T11:54:43.741Z,28.10
2017-05-28T11:57:12.658Z,28.80
2017-05-28T11:59:40.506Z,29.30
2017-05-28T12:02:08.380Z,28.80
2017-05-28T12:04:35.865Z,28.80
2017-05-28T12:07:03.714Z,29.30
2017-05-28T12:09:31.186Z,29.30
2017-05-28T12:11:59.315Z,29.60
2017-05-28T12:14:26.788Z,29.60
2017-05-28T12:16:54.679Z,30.10
2017-05-28T12:19:22.397Z,30.10
2017-05-28T12:21:50.248Z,29.80
2017-05-28T12:24:19.513Z,29.20
2017-05-28T12:26:48.708Z,29.20
2017-05-28T12:29:16.167Z,29.80
2017-05-28T12:31:44.041Z,29.90
2017-05-28T12:34:12.233Z,30.00
2017-05-28T12:36:40.754Z,29.10
2017-05-28T12:39:08.607Z,30.20
2017-05-28T12:41:36.757Z,30.70
2017-05-28T12:44:04.714Z,29.60
2017-05-28T12:46:32.985Z,29.20
2017-05-28T12:49:01.098Z,29.10
2017-05-28T12:51:28.956Z,29.90
2017-05-28T12:53:56.428Z,29.90
2017-05-28T12:56:24.314Z,28.90
2017-05-28T12:58:52.165Z,28.80
2017-05-28T13:01:20.020Z,29.90
2017-05-28T13:03:48.756Z,30.20
2017-05-28T13:06:16.622Z,30.30
2017-05-28T13:08:44.792Z,30.40
2017-05-28T13:11:12.646Z,28.90
2017-05-28T13:13:41.137Z,29.80
2017-05-28T13:16:10.124Z,30.20
2017-05-28T13:18:38.326Z,30.10
2017-05-28T13:21:05.802Z,30.20
2017-05-28T13:23:33.732Z,31.50
2017-05-28T13:26:02.474Z,31.70
2017-05-28T13:28:31.040Z,31.70
2017-05-28T13:31:00.269Z,31.20
2017-05-28T13:33:27.712Z,31.20
2017-05-28T13:35:55.557Z,32.00
2017-05-28T13:38:23.467Z,31.00
2017-05-28T13:40:52.032Z,31.60
2017-05-28T13:43:19.885Z,32.10
2017-05-28T13:45:47.368Z,32.10
2017-05-28T13:48:14.834Z,32.20
2017-05-28T13:50:43.308Z,32.40
2017-05-28T13:53:12.344Z,32.00
2017-05-28T13:55:39.804Z,32.00
2017-05-28T13:58:07.667Z,31.80
2017-05-28T14:00:35.536Z,31.90
2017-05-28T14:03:03.385Z,31.50
2017-05-28T14:05:31.235Z,32.20
2017-05-28T14:07:59.382Z,31.90
2017-05-28T14:10:27.237Z,31.40
2017-05-28T14:12:55.489Z,31.90
2017-05-28T14:15:23.378Z,32.00
2017-05-28T14:17:51.243Z,32.00
2017-05-28T14:20:18.771Z,32.00
2017-05-28T14:22:46.477Z,31.20
2017-05-28T14:25:14.336Z,31.30
2017-05-28T14:27:42.195Z,30.70
2017-05-28T14:30:10.086Z,30.70
2017-05-28T14:32:37.947Z,31.00
2017-05-28T14:35:06.282Z,30.80
2017-05-28T14:37:33.761Z,30.80
2017-05-28T14:40:01.222Z,30.40
2017-05-28T14:42:28.692Z,30.30
2017-05-28T14:44:57.561Z,29.70
2017-05-28T14:47:25.309Z,29.70
2017-05-28T14:49:53.168Z,29.10
2017-05-28T14:52:21.263Z,29.00
2017-05-28T14:54:49.125Z,28.80
2017-05-28T14:57:16.984Z,28.70
2017-05-28T14:59:44.975Z,28.40
2017-05-28T15:02:12.424Z,28.40
2017-05-28T15:04:40.279Z,28.20
2017-05-28T15:07:09.207Z,28.00
2017-05-28T15:09:37.573Z,27.90
2017-05-28T15:12:05.442Z,28.00
2017-05-28T15:14:33.907Z,27.80
2017-05-28T15:17:02.138Z,27.70
2017-05-28T15:19:30.020Z,27.40
2017-05-28T15:21:58.034Z,27.10
2017-05-28T15:24:26.633Z,27.00
2017-05-28T15:26:54.482Z,26.90
2017-05-28T15:29:22.352Z,26.70
2017-05-28T15:31:50.646Z,26.70
2017-05-28T15:34:18.978Z,26.80
2017-05-28T15:36:46.929Z,26.80
2017-05-28T15:39:14.971Z,26.60
2017-05-28T15:41:42.861Z,26.40
2017-05-28T15:44:10.741Z,26.40
2017-05-28T15:46:38.239Z,26.40
2017-05-28T15:49:07.054Z,26.30
2017-05-28T15:51:35.722Z,26.40
2017-05-28T15:54:03.815Z,26.00
2017-05-28T15:56:32.087Z,26.00
2017-05-28T15:58:59.955Z,26.00
2017-05-28T16:01:28.139Z,26.00
2017-05-28T16:03:56.546Z,26.00
2017-05-28T16:06:24.757Z,25.90
2017-05-28T16:08:53.861Z,25.60
2017-05-28T16:11:21.764Z,25.50
2017-05-28T16:13:49.633Z,25.60
2017-05-28T16:16:17.562Z,25.70
2017-05-28T16:18:45.401Z,25.70
2017-05-28T16:21:14.562Z,25.60
2017-05-28T16:23:42.869Z,25.50
2017-05-28T16:26:10.735Z,25.50
2017-05-28T16:28:38.737Z,25.50
2017-05-28T16:31:06.770Z,25.20
2017-05-28T16:33:34.832Z,25.10
2017-05-28T16:36:02.873Z,25.10
2017-05-28T16:38:32.357Z,25.00
2017-05-28T16:41:00.374Z,24.90
2017-05-28T16:43:28.706Z,24.70
2017-05-28T16:45:56.519Z,24.80
2017-05-28T16:48:24.443Z,24.70
2017-05-28T16:50:52.484Z,24.70
2017-05-28T16:53:20.580Z,24.70
2017-05-28T16:55:48.662Z,24.70
2017-05-28T16:58:17.655Z,24.50
2017-05-28T17:00:46.290Z,24.40
2017-05-28T17:03:14.467Z,24.40
2017-05-28T17:05:42.417Z,24.30
2017-05-28T17:08:10.942Z,24.10
2017-05-28T17:10:39.548Z,24.20
2017-05-28T17:13:08.898Z,24.20
2017-05-28T17:15:37.884Z,24.20
2017-05-28T17:18:06.201Z,24.20
2017-05-28T17:20:33.997Z,24.30
2017-05-28T17:23:02.836Z,24.20
2017-05-28T17:25:31.277Z,24.20
2017-05-28T17:27:59.937Z,24.20
2017-05-28T17:30:29.157Z,24.10
2017-05-28T17:32:57.562Z,24.00
2017-05-28T17:35:25.717Z,24.00
2017-05-28T17:37:54.475Z,24.10
2017-05-28T17:40:23.250Z,24.10
2017-05-28T17:42:52.165Z,24.00
2017-05-28T17:45:20.874Z,24.00
2017-05-28T17:47:49.874Z,23.80
2017-05-28T17:50:18.735Z,23.60
2017-05-28T17:52:47.905Z,23.70
2017-05-28T17:55:16.896Z,23.70
2017-05-28T17:57:45.852Z,23.60
2017-05-28T18:00:15.683Z,23.40
2017-05-28T18:02:44.515Z,23.40
2017-05-28T18:05:13.487Z,23.30
2017-05-28T18:07:42.616Z,23.30
2017-05-28T18:10:11.634Z,23.10
2017-05-28T18:15:15.524Z,23.00
2017-05-28T18:17:44.101Z,23.00
2017-05-28T18:20:14.196Z,22.70
2017-05-28T18:22:43.335Z,22.60
2017-05-28T18:25:13.019Z,22.60
2017-05-28T18:27:42.529Z,22.80
2017-05-28T18:30:11.830Z,22.70
2017-05-28T18:32:40.759Z,22.60
2017-05-28T18:35:10.248Z,22.60
2017-05-28T18:37:39.268Z,22.60
2017-05-28T18:40:08.394Z,22.60
2017-05-28T18:42:37.406Z,22.40
2017-05-28T18:45:06.736Z,22.40
2017-05-28T18:47:36.586Z,22.20
2017-05-28T18:50:05.625Z,22.20
2017-05-28T18:52:34.809Z,22.10
2017-05-28T18:55:04.648Z,22.20
2017-05-28T19:00:07.938Z,22.20
2017-05-28T19:02:36.880Z,21.80
2017-05-28T19:05:05.422Z,21.80
2017-05-28T19:07:34.714Z,21.80
2017-05-28T19:10:03.888Z,21.70
2017-05-28T19:12:32.577Z,21.70
2017-05-28T19:15:02.347Z,21.60
2017-05-28T19:17:34.093Z,21.50
2017-05-28T19:20:04.037Z,21.50
2017-05-28T19:22:33.591Z,21.50
2017-05-28T19:25:02.856Z,21.30
2017-05-28T19:27:31.561Z,21.30
2017-05-28T19:30:00.567Z,21.10
2017-05-28T19:32:29.599Z,21.20
2017-05-28T19:34:58.171Z,21.20
2017-05-28T19:37:27.561Z,21.20
2017-05-28T19:39:56.737Z,21.00
2017-05-28T19:42:26.300Z,20.70
2017-05-28T19:44:54.825Z,20.70
2017-05-28T19:47:24.195Z,20.70
2017-05-28T19:49:53.130Z,20.60
2017-05-28T19:52:22.567Z,20.60
2017-05-28T19:54:51.737Z,20.60
2017-05-28T19:57:20.662Z,20.50
2017-05-28T19:59:49.701Z,20.60
2017-05-28T20:02:18.702Z,20.50
2017-05-28T20:04:47.386Z,20.60
2017-05-28T20:07:16.023Z,20.30
2017-05-28T20:09:45.296Z,20.60
2017-05-28T20:12:14.223Z,20.60
2017-05-28T20:14:43.403Z,20.60
2017-05-28T20:17:12.588Z,20.20
2017-05-28T20:19:42.470Z,20.30
2017-05-28T20:22:11.594Z,20.30
2017-05-28T20:24:40.770Z,20.30
2017-05-28T20:27:09.293Z,20.30
2017-05-28T20:29:38.214Z,20.30
2017-05-28T20:32:07.635Z,20.30
2017-05-28T20:34:36.642Z,20.30
2017-05-28T20:37:05.143Z,20.30
2017-05-28T20:39:35.687Z,20.00
2017-05-28T20:42:04.295Z,20.00
2017-05-28T20:44:34.400Z,19.80
2017-05-28T20:47:03.283Z,19.90
2017-05-28T20:49:32.172Z,19.70
2017-05-28T20:52:01.211Z,19.70
2017-05-28T20:54:30.115Z,19.80
2017-05-28T20:56:59.255Z,19.30
2017-05-28T20:59:27.964Z,19.30
2017-05-28T21:01:56.821Z,19.10
2017-05-28T21:04:25.806Z,19.40
2017-05-28T21:06:54.775Z,18.80
2017-05-28T21:09:23.271Z,18.80
2017-05-28T21:11:52.139Z,19.30
2017-05-28T21:14:20.808Z,19.30
2017-05-28T21:16:49.672Z,19.20
2017-05-28T21:19:18.553Z,19.40
2017-05-28T21:21:47.495Z,19.40
2017-05-28T21:24:15.621Z,19.40
2017-05-28T21:26:43.711Z,19.00
2017-05-28T21:29:11.588Z,19.00
2017-05-28T21:31:39.471Z,18.90
2017-05-28T21:34:07.374Z,19.00
2017-05-28T21:36:35.241Z,18.90
2017-05-28T21:39:02.696Z,19.00
2017-05-28T21:41:30.548Z,18.90
2017-05-28T21:43:58.413Z,17.90
2017-05-28T21:46:26.265Z,18.30
2017-05-28T21:48:54.103Z,18.60
2017-05-28T21:51:21.590Z,18.60
2017-05-28T21:53:49.435Z,18.20
2017-05-28T21:56:16.888Z,18.20
2017-05-28T21:58:44.782Z,18.40
2017-05-28T22:01:12.628Z,17.80
2017-05-28T22:03:40.477Z,18.20
2017-05-28T22:06:08.351Z,18.60
2017-05-28T22:08:36.193Z,18.50
2017-05-28T22:11:04.040Z,18.40
2017-05-28T22:13:32.505Z,18.40
2017-05-28T22:16:00.352Z,18.30
2017-05-28T22:18:28.207Z,18.10
2017-05-28T22:20:56.303Z,17.30
2017-05-28T22:23:24.144Z,17.50
2017-05-28T22:25:51.987Z,17.10
2017-05-28T22:28:19.874Z,16.90
2017-05-28T22:30:47.329Z,16.90
2017-05-28T22:33:15.576Z,16.70
2017-05-28T22:35:43.447Z,17.00
2017-05-28T22:38:10.903Z,17.00
2017-05-28T22:40:39.729Z,17.20
2017-05-28T22:43:07.596Z,16.90
2017-05-28T22:45:35.439Z,16.90
2017-05-28T22:48:03.287Z,16.70
2017-05-28T22:50:31.259Z,16.40
2017-05-28T22:52:59.102Z,16.50
2017-05-28T22:55:26.948Z,16.40
2017-05-28T22:57:55.096Z,16.30
2017-05-28T23:00:22.944Z,16.30
2017-05-28T23:02:50.792Z,16.10
2017-05-28T23:05:18.683Z,16.00
2017-05-28T23:07:46.129Z,16.00
2017-05-28T23:10:14.045Z,16.10
2017-05-28T23:12:41.856Z,16.30
2017-05-28T23:15:09.701Z,16.00
2017-05-28T23:17:37.551Z,16.30
2017-05-28T23:20:05.672Z,16.10
2017-05-28T23:22:33.531Z,15.80
2017-05-28T23:25:01.369Z,16.40
2017-05-28T23:27:29.412Z,16.80
2017-05-28T23:29:57.255Z,16.30
2017-05-28T23:32:25.113Z,16.60
2017-05-28T23:34:53.065Z,16.20
2017-05-28T23:37:20.911Z,16.70
2017-05-28T23:39:48.768Z,16.20
2017-05-28T23:42:16.249Z,16.20
2017-05-28T23:44:43.705Z,15.70
2017-05-28T23:47:11.233Z,15.90
2017-05-28T23:49:39.079Z,15.60
2017-05-28T23:52:06.925Z,15.70
2017-05-28T23:54:34.777Z,16.20
2017-05-28T23:57:02.278Z,16.20
2017-05-28T23:59:29.724Z,16.90
